Marlow Heights, Maryland
Current Conditions -  °F | °C
As of 5:58 PM on Monday 24 Nov 2014 (Local Time) from KADW Reporting Station
Clear Clear  
Wind Chill: 65°   Ceiling: Unl
Heat Index: 65°   Visibility: 10mi
Dew Point: 53°   Wind: 12mph
Humidity: 64%   Direction: 180°S
Pressure: 29.69"   Gusts: NA
Location:  38.8377°N, 76.9193°W
Report Text: KADW 242258Z AUTO 18010KT 10SM CLR 18/11 A2969 RMK AO2 SLP060 T01830114 $
Loading
Personal Weather Stations






























Interactive Weather Map New forecast layout! Learn more

10-Day Weather Forecast

Advertisements
Track Severe Weather on mobile